createdAt,value
2019-04-22T00:00:29.021Z,7.20
2019-04-22T00:01:28.618Z,6.80
2019-04-22T00:02:24.669Z,6.80
2019-04-22T00:03:33.947Z,7.10
2019-04-22T00:04:40.251Z,6.70
2019-04-22T00:05:44.368Z,6.50
2019-04-22T00:06:50.072Z,6.90
2019-04-22T00:07:48.935Z,7.20
2019-04-22T00:08:53.245Z,7.10
2019-04-22T00:09:53.021Z,6.90
2019-04-22T00:11:01.156Z,6.40
2019-04-22T00:11:54.658Z,6.60
2019-04-22T00:13:52.075Z,7.30
2019-04-22T00:14:48.391Z,6.30
2019-04-22T00:15:41.952Z,6.50
2019-04-22T00:16:56.675Z,6.50
2019-04-22T00:17:55.273Z,6.80
2019-04-22T00:19:11.454Z,5.90
2019-04-22T00:19:55.530Z,6.30
2019-04-22T00:20:54.354Z,7.30
2019-04-22T00:21:55.138Z,6.50
2019-04-22T00:22:44.912Z,6.50
2019-04-22T00:23:51.517Z,6.30
2019-04-22T00:24:51.286Z,6.00
2019-04-22T00:25:57.153Z,6.00
2019-04-22T00:26:50.250Z,6.30
2019-04-22T00:28:53.279Z,6.70
2019-04-22T00:30:02.491Z,6.40
2019-04-22T00:30:47.394Z,6.00
2019-04-22T00:31:45.606Z,6.40
2019-04-22T00:32:46.432Z,6.30
2019-04-22T00:33:45.320Z,6.50
2019-04-22T00:34:51.319Z,6.20
2019-04-22T00:35:48.701Z,6.70
2019-04-22T00:36:52.620Z,6.20
2019-04-22T00:37:54.127Z,7.80
2019-04-22T00:38:51.634Z,6.50
2019-04-22T00:39:50.252Z,6.60
2019-04-22T00:41:50.514Z,7.00
2019-04-22T00:42:47.259Z,7.10
2019-04-22T00:43:47.999Z,7.20
2019-04-22T00:44:51.790Z,6.80
2019-04-22T00:45:53.204Z,6.90
2019-04-22T00:46:54.463Z,7.50
2019-04-22T00:47:46.169Z,7.10
2019-04-22T00:49:05.854Z,7.50
2019-04-22T00:50:58.356Z,7.00
2019-04-22T00:51:52.680Z,7.10
2019-04-22T00:52:47.489Z,7.10
2019-04-22T00:53:46.839Z,7.20
2019-04-22T00:54:55.795Z,7.90
2019-04-22T00:55:46.301Z,7.60
2019-04-22T00:56:48.156Z,7.90
2019-04-22T00:57:46.483Z,6.80
2019-04-22T00:58:46.389Z,7.80
2019-04-22T00:59:55.117Z,7.20
2019-04-22T01:00:57.565Z,7.20
2019-04-22T01:01:46.993Z,7.50
2019-04-22T01:03:02.991Z,7.60
2019-04-22T01:03:56.649Z,7.70
2019-04-22T01:05:00.901Z,7.10
2019-04-22T01:05:50.966Z,7.30
2019-04-22T01:06:44.556Z,7.60
2019-04-22T01:07:49.556Z,7.00
2019-04-22T01:09:00.392Z,7.60
2019-04-22T01:09:56.543Z,7.30
2019-04-22T01:10:52.882Z,7.40
2019-04-22T01:11:45.075Z,6.90
2019-04-22T01:12:49.992Z,7.10
2019-04-22T01:13:50.446Z,7.40
2019-04-22T01:14:47.564Z,7.20
2019-04-22T01:15:47.582Z,7.20
2019-04-22T01:16:50.691Z,7.20
2019-04-22T01:17:54.581Z,7.30
2019-04-22T01:18:52.264Z,7.20
2019-04-22T01:19:51.235Z,7.40
2019-04-22T01:21:05.956Z,7.30
2019-04-22T01:21:44.782Z,7.50
2019-04-22T01:22:46.048Z,7.70
2019-04-22T01:23:43.795Z,7.00
2019-04-22T01:24:48.119Z,7.10
2019-04-22T01:25:41.418Z,7.20
2019-04-22T01:26:41.894Z,7.60
2019-04-22T01:27:40.234Z,7.30
2019-04-22T01:28:34.222Z,7.30
2019-04-22T01:29:39.785Z,7.10
2019-04-22T01:30:32.200Z,7.70
2019-04-22T01:31:27.544Z,6.80
2019-04-22T01:32:32.182Z,7.70
2019-04-22T01:33:32.462Z,7.20
2019-04-22T01:34:37.554Z,7.10
2019-04-22T01:35:37.757Z,7.60
2019-04-22T01:36:45.087Z,7.50
2019-04-22T01:37:44.346Z,7.50
2019-04-22T01:38:45.476Z,7.00
2019-04-22T01:39:49.960Z,7.90
2019-04-22T01:40:53.496Z,7.90
2019-04-22T01:41:54.879Z,7.50
2019-04-22T01:42:57.512Z,7.70
2019-04-22T01:43:58.734Z,7.20
2019-04-22T01:44:45.824Z,7.10
2019-04-22T01:45:45.725Z,7.50
2019-04-22T01:46:53.906Z,6.70
2019-04-22T01:47:49.415Z,7.70
2019-04-22T01:48:47.512Z,7.40
2019-04-22T01:49:46.424Z,7.60
2019-04-22T01:50:49.995Z,6.50
2019-04-22T01:52:52.043Z,7.20
2019-04-22T01:53:56.563Z,7.60
2019-04-22T01:54:52.148Z,7.70
2019-04-22T01:55:50.255Z,7.80
2019-04-22T01:57:47.704Z,7.40
2019-04-22T01:58:40.669Z,7.90
2019-04-22T01:59:41.356Z,6.90
2019-04-22T02:00:53.419Z,7.00
2019-04-22T02:01:52.168Z,7.10
2019-04-22T02:02:49.217Z,8.10
2019-04-22T02:03:57.755Z,7.30
2019-04-22T02:04:51.453Z,7.20
2019-04-22T02:05:56.662Z,7.10
2019-04-22T02:06:50.904Z,7.40
2019-04-22T02:07:49.026Z,7.10
2019-04-22T02:08:56.889Z,7.70
2019-04-22T02:09:51.474Z,7.10
2019-04-22T02:10:55.034Z,7.20
2019-04-22T02:11:57.202Z,6.80
2019-04-22T02:12:48.360Z,7.70
2019-04-22T02:13:52.369Z,7.30
2019-04-22T02:15:06.078Z,7.20
2019-04-22T02:15:53.885Z,7.20
2019-04-22T02:16:50.407Z,7.30
2019-04-22T02:17:54.874Z,7.00
2019-04-22T02:18:52.436Z,7.70
2019-04-22T02:19:53.466Z,7.70
2019-04-22T02:20:48.893Z,7.20
2019-04-22T02:21:51.546Z,7.40
2019-04-22T02:23:00.824Z,7.00
2019-04-22T02:25:56.093Z,7.70
2019-04-22T02:26:51.954Z,7.20
2019-04-22T02:27:54.658Z,7.30
2019-04-22T02:29:01.589Z,7.60
2019-04-22T02:29:50.368Z,7.60
2019-04-22T02:31:13.834Z,7.30
2019-04-22T02:33:18.470Z,7.80
2019-04-22T02:34:09.322Z,7.70
2019-04-22T02:35:01.957Z,7.20
2019-04-22T02:36:11.745Z,7.80
2019-04-22T02:36:50.473Z,6.80
2019-04-22T02:37:55.034Z,7.50
2019-04-22T02:39:57.918Z,7.40
2019-04-22T02:41:50.898Z,8.00
2019-04-22T02:42:52.235Z,6.90
2019-04-22T02:44:53.219Z,7.50
2019-04-22T02:46:23.298Z,7.00
2019-04-22T02:47:07.860Z,7.70
2019-04-22T02:48:00.921Z,7.30
2019-04-22T02:49:04.060Z,7.40
2019-04-22T02:49:53.549Z,7.30
2019-04-22T02:51:06.980Z,7.20
2019-04-22T02:51:43.207Z,7.20
2019-04-22T02:53:17.492Z,7.30
2019-04-22T02:54:22.327Z,7.50
2019-04-22T02:54:55.139Z,6.90
2019-04-22T02:56:02.583Z,7.10
2019-04-22T02:56:43.794Z,7.00
2019-04-22T02:57:47.548Z,7.50
2019-04-22T02:59:11.645Z,6.80
2019-04-22T02:59:57.140Z,7.00
2019-04-22T03:01:01.191Z,7.20
2019-04-22T03:01:47.097Z,7.20
2019-04-22T03:03:17.973Z,7.10
2019-04-22T03:04:04.423Z,6.90
2019-04-22T03:04:54.883Z,8.00
2019-04-22T03:06:16.543Z,6.70
2019-04-22T03:07:58.817Z,7.30
2019-04-22T03:09:57.734Z,7.00
2019-04-22T03:11:04.053Z,7.30
2019-04-22T03:12:03.668Z,7.20
2019-04-22T03:12:53.947Z,7.00
2019-04-22T03:13:55.448Z,7.00
2019-04-22T03:14:48.246Z,7.10
2019-04-22T03:15:59.574Z,7.70
2019-04-22T03:17:10.937Z,7.70
2019-04-22T03:17:58.407Z,7.30
2019-04-22T03:19:09.970Z,7.70
2019-04-22T03:20:58.325Z,7.60
2019-04-22T03:21:54.557Z,7.50
2019-04-22T03:22:59.984Z,7.10
2019-04-22T03:23:55.842Z,7.40
2019-04-22T03:27:48.355Z,7.40
2019-04-22T03:28:57.025Z,7.00
2019-04-22T03:30:26.223Z,7.50
2019-04-22T03:34:39.047Z,6.80
2019-04-22T03:36:18.716Z,7.30
2019-04-22T03:39:17.631Z,7.00
2019-04-22T03:40:03.979Z,7.40
2019-04-22T03:41:13.418Z,6.90
2019-04-22T03:42:06.988Z,7.60
2019-04-22T03:42:59.710Z,7.30
2019-04-22T03:44:15.089Z,7.10
2019-04-22T03:45:00.915Z,6.80
2019-04-22T03:45:52.512Z,7.50
2019-04-22T03:47:02.304Z,6.80
2019-04-22T03:49:11.794Z,7.20
2019-04-22T03:50:04.599Z,7.50
2019-04-22T03:50:42.946Z,7.70
2019-04-22T03:54:02.798Z,7.40
2019-04-22T03:55:51.467Z,7.50
2019-04-22T03:57:25.971Z,7.50
2019-04-22T03:57:57.362Z,7.30
2019-04-22T03:59:00.727Z,7.20
2019-04-22T04:02:16.191Z,7.50
2019-04-22T04:02:55.956Z,7.10
2019-04-22T04:04:07.428Z,7.10
2019-04-22T04:04:49.451Z,7.20
2019-04-22T04:05:53.521Z,6.90
2019-04-22T04:08:51.604Z,7.20
2019-04-22T04:10:08.194Z,7.20
2019-04-22T04:10:55.356Z,7.60
2019-04-22T04:13:05.710Z,7.40
2019-04-22T04:14:05.122Z,7.10
2019-04-22T04:15:14.000Z,7.70
2019-04-22T04:15:49.986Z,7.10
2019-04-22T04:17:00.205Z,6.80
2019-04-22T04:18:01.574Z,7.10
2019-04-22T04:21:03.687Z,7.40
2019-04-22T04:21:53.421Z,7.40
2019-04-22T04:22:59.250Z,6.90
2019-04-22T04:24:29.568Z,7.30
2019-04-22T04:25:08.881Z,7.80
2019-04-22T04:27:27.186Z,7.40
2019-04-22T04:29:10.168Z,7.30
2019-04-22T04:31:21.852Z,7.10
2019-04-22T04:33:04.849Z,7.40
2019-04-22T04:33:54.399Z,7.20
2019-04-22T04:35:13.105Z,7.00
2019-04-22T04:35:58.708Z,7.40
2019-04-22T04:37:07.027Z,7.30
2019-04-22T04:37:55.918Z,7.00
2019-04-22T04:38:51.838Z,7.40
2019-04-22T04:40:50.801Z,7.40
2019-04-22T04:45:59.457Z,7.10
2019-04-22T04:47:11.709Z,7.30
2019-04-22T04:48:09.570Z,7.10
2019-04-22T04:49:02.965Z,7.90
2019-04-22T04:50:01.493Z,7.40
2019-04-22T04:52:03.063Z,7.80
2019-04-22T04:53:06.078Z,7.30
2019-04-22T04:53:55.380Z,7.80
2019-04-22T04:54:58.847Z,7.40
2019-04-22T04:55:51.915Z,7.60
2019-04-22T04:56:50.789Z,7.70
2019-04-22T04:58:09.983Z,7.50
2019-04-22T05:00:57.925Z,6.80
2019-04-22T05:01:52.807Z,7.60
2019-04-22T05:03:58.098Z,7.80
2019-04-22T05:05:52.249Z,7.70
2019-04-22T05:07:05.781Z,7.90
2019-04-22T05:07:59.979Z,8.10
2019-04-22T05:09:11.378Z,6.90
2019-04-22T05:09:55.585Z,7.20
2019-04-22T05:11:13.991Z,6.60
2019-04-22T05:12:12.500Z,6.80
2019-04-22T05:13:57.856Z,7.20
2019-04-22T05:15:59.762Z,7.40
2019-04-22T05:18:16.601Z,7.00
2019-04-22T05:18:54.705Z,7.20
2019-04-22T05:19:47.242Z,7.30
2019-04-22T05:20:59.723Z,7.50
2019-04-22T05:21:53.385Z,7.40
2019-04-22T05:22:44.493Z,7.60
2019-04-22T05:24:51.912Z,7.40
2019-04-22T05:25:41.091Z,7.20
2019-04-22T05:26:48.816Z,7.60
2019-04-22T05:27:48.756Z,7.00
2019-04-22T05:29:06.679Z,6.80
2019-04-22T05:30:07.458Z,6.60
2019-04-22T05:30:41.041Z,7.10
2019-04-22T05:31:54.905Z,6.60
2019-04-22T05:33:49.351Z,7.20
2019-04-22T05:34:48.400Z,7.10
2019-04-22T05:35:46.365Z,7.10
2019-04-22T05:36:48.409Z,6.90
2019-04-22T05:37:50.372Z,7.40
2019-04-22T05:38:53.637Z,6.50
2019-04-22T05:39:53.961Z,6.50
2019-04-22T05:40:43.287Z,7.00
2019-04-22T05:41:51.580Z,7.20
2019-04-22T05:42:44.179Z,6.90
2019-04-22T05:43:50.117Z,7.20
2019-04-22T05:44:52.826Z,6.50
2019-04-22T05:45:49.455Z,7.00
2019-04-22T05:46:49.989Z,7.00
2019-04-22T05:47:47.459Z,7.40
2019-04-22T05:48:51.941Z,7.20
2019-04-22T05:49:41.520Z,7.30
2019-04-22T05:50:45.245Z,7.30
2019-04-22T05:51:48.445Z,7.10
2019-04-22T05:52:47.206Z,7.20
2019-04-22T05:53:50.944Z,7.40
2019-04-22T05:54:50.534Z,7.10
2019-04-22T05:55:47.912Z,7.80
2019-04-22T05:56:40.971Z,7.10
2019-04-22T05:57:44.391Z,7.10
2019-04-22T05:58:51.456Z,7.30
2019-04-22T05:59:45.966Z,7.30
2019-04-22T06:01:12.780Z,7.60
2019-04-22T06:01:55.147Z,6.90
2019-04-22T06:03:50.941Z,7.30
2019-04-22T06:04:53.167Z,7.40
2019-04-22T06:06:06.285Z,7.00
2019-04-22T06:06:39.925Z,7.10
2019-04-22T06:07:50.657Z,7.10
2019-04-22T06:08:48.650Z,7.40
2019-04-22T06:09:38.931Z,7.60
2019-04-22T06:10:55.585Z,7.40
2019-04-22T06:11:36.336Z,7.60
2019-04-22T06:12:38.932Z,6.40
2019-04-22T06:13:40.465Z,6.60
2019-04-22T06:14:37.086Z,6.80
2019-04-22T06:15:37.551Z,7.10
2019-04-22T06:16:45.726Z,6.60
2019-04-22T06:17:52.293Z,6.90
2019-04-22T06:18:47.003Z,6.50
2019-04-22T06:19:44.897Z,6.30
2019-04-22T06:20:45.493Z,7.10
2019-04-22T06:21:46.302Z,6.90
2019-04-22T06:22:50.451Z,6.50
2019-04-22T06:23:46.764Z,6.50
2019-04-22T06:24:53.864Z,6.30
2019-04-22T06:25:57.390Z,6.10
2019-04-22T06:26:53.859Z,6.20
2019-04-22T06:28:05.244Z,6.50
2019-04-22T06:28:51.861Z,6.70
2019-04-22T06:29:41.819Z,6.70
2019-04-22T06:30:48.939Z,6.30
2019-04-22T06:32:58.622Z,6.10
2019-04-22T06:33:48.104Z,6.50
2019-04-22T06:34:43.079Z,6.40
2019-04-22T06:37:54.917Z,6.20
2019-04-22T06:38:59.121Z,6.70
2019-04-22T06:39:44.788Z,6.50
2019-04-22T06:40:46.846Z,6.60
2019-04-22T06:41:49.902Z,6.60
2019-04-22T06:42:52.331Z,6.30
2019-04-22T06:43:56.195Z,6.40
2019-04-22T06:44:50.018Z,6.40
2019-04-22T06:45:39.712Z,5.80
2019-04-22T06:46:47.961Z,6.30
2019-04-22T06:48:43.388Z,6.30
2019-04-22T06:51:46.525Z,5.80
2019-04-22T06:52:50.297Z,6.50
2019-04-22T06:53:48.232Z,6.00
2019-04-22T06:54:49.010Z,6.50
2019-04-22T06:55:48.187Z,6.10
2019-04-22T06:56:43.142Z,5.80
2019-04-22T06:57:44.983Z,5.80
2019-04-22T06:58:47.758Z,6.20
2019-04-22T06:59:43.983Z,6.60
2019-04-22T07:01:52.547Z,6.30
2019-04-22T07:02:57.422Z,6.00
2019-04-22T07:03:52.319Z,6.50
2019-04-22T07:04:51.991Z,6.40
2019-04-22T07:05:49.490Z,6.00
2019-04-22T07:06:48.720Z,6.20
2019-04-22T07:07:52.195Z,6.20
2019-04-22T07:09:48.578Z,5.80
2019-04-22T07:10:47.802Z,5.90
2019-04-22T07:11:43.347Z,6.00
2019-04-22T07:12:46.942Z,5.90
2019-04-22T07:14:01.774Z,5.50
2019-04-22T07:14:42.033Z,5.50
2019-04-22T07:16:49.390Z,5.90
2019-04-22T07:17:50.255Z,5.80
2019-04-22T07:18:43.342Z,6.10
2019-04-22T07:19:43.728Z,5.90
2019-04-22T07:20:51.133Z,5.60
2019-04-22T07:21:46.920Z,6.00
2019-04-22T07:22:47.566Z,5.90
2019-04-22T07:23:52.966Z,5.50
2019-04-22T07:24:46.159Z,5.90
2019-04-22T07:26:45.078Z,6.30
2019-04-22T07:27:45.903Z,5.90
2019-04-22T07:28:46.271Z,5.60
2019-04-22T07:29:51.845Z,6.00
2019-04-22T07:30:50.300Z,5.60
2019-04-22T07:31:49.874Z,5.90
2019-04-22T07:33:05.007Z,5.80
2019-04-22T07:33:42.482Z,5.50
2019-04-22T07:34:46.138Z,5.40
2019-04-22T07:35:54.925Z,5.40
2019-04-22T07:37:41.845Z,5.70
2019-04-22T07:38:35.900Z,5.60
2019-04-22T07:40:48.803Z,5.40
2019-04-22T07:41:48.845Z,5.20
2019-04-22T07:42:46.007Z,5.30
2019-04-22T07:43:59.720Z,5.30
2019-04-22T07:44:44.960Z,5.30
2019-04-22T07:45:48.914Z,5.60
2019-04-22T07:46:54.326Z,5.30
2019-04-22T07:47:49.436Z,5.80
2019-04-22T07:48:48.116Z,5.80
2019-04-22T07:49:47.267Z,5.10
2019-04-22T07:51:00.705Z,5.50
2019-04-22T07:51:44.636Z,5.50
2019-04-22T07:52:45.990Z,5.40
2019-04-22T07:53:43.332Z,5.40
2019-04-22T07:54:47.968Z,5.10
2019-04-22T07:55:50.545Z,5.00
2019-04-22T07:56:43.881Z,5.60
2019-04-22T07:57:49.469Z,5.60
2019-04-22T07:58:44.937Z,5.60
2019-04-22T07:59:41.163Z,5.10
2019-04-22T08:01:02.023Z,5.40
2019-04-22T08:01:41.833Z,5.50
2019-04-22T08:02:51.576Z,5.40
2019-04-22T08:05:53.492Z,5.30
2019-04-22T08:06:49.380Z,4.90
2019-04-22T08:07:45.350Z,5.40
2019-04-22T08:08:45.601Z,4.80
2019-04-22T08:09:55.626Z,4.60
2019-04-22T08:11:49.968Z,4.70
2019-04-22T08:12:45.791Z,5.20
2019-04-22T08:13:43.270Z,4.50
2019-04-22T08:14:47.133Z,4.20
2019-04-22T08:15:51.211Z,4.30
2019-04-22T08:16:43.344Z,4.10
2019-04-22T08:18:39.547Z,4.50
2019-04-22T08:19:53.952Z,3.80
2019-04-22T08:20:58.394Z,4.20
2019-04-22T08:21:46.206Z,4.40
2019-04-22T08:22:43.139Z,3.90
2019-04-22T08:23:51.048Z,4.10
2019-04-22T08:25:42.892Z,4.30
2019-04-22T08:26:51.339Z,4.90
2019-04-22T08:27:47.144Z,4.30
2019-04-22T08:28:45.829Z,3.90
2019-04-22T08:29:52.422Z,4.50
2019-04-22T08:30:47.686Z,3.80
2019-04-22T08:31:48.774Z,4.10
2019-04-22T08:33:39.759Z,4.10
2019-04-22T08:34:42.183Z,4.00
2019-04-22T08:36:00.292Z,3.90
2019-04-22T08:36:53.966Z,3.80
2019-04-22T08:38:52.903Z,3.80
2019-04-22T08:39:40.557Z,3.90
2019-04-22T08:40:47.281Z,3.90
2019-04-22T08:42:51.399Z,3.80
2019-04-22T08:43:56.130Z,3.70
2019-04-22T08:45:54.246Z,4.10
2019-04-22T08:47:04.756Z,3.90
2019-04-22T08:47:41.954Z,3.80
2019-04-22T08:48:44.487Z,3.90
2019-04-22T08:49:50.476Z,3.90
2019-04-22T08:50:47.057Z,3.90
2019-04-22T08:51:42.636Z,3.80
2019-04-22T08:52:42.228Z,3.70
2019-04-22T08:53:48.192Z,3.90
2019-04-22T08:54:45.012Z,3.80
2019-04-22T08:55:51.940Z,3.90
2019-04-22T08:57:00.107Z,4.00
2019-04-22T08:58:03.694Z,3.60
2019-04-22T08:58:44.548Z,3.30
2019-04-22T08:59:46.553Z,3.90
2019-04-22T09:00:51.346Z,4.00
2019-04-22T09:01:40.745Z,4.10
2019-04-22T09:02:46.672Z,3.50
2019-04-22T09:03:50.443Z,4.00
2019-04-22T09:04:44.728Z,3.90
2019-04-22T09:07:06.112Z,3.80
2019-04-22T09:07:48.977Z,3.80
2019-04-22T09:08:48.832Z,3.40
2019-04-22T09:09:44.558Z,3.80
2019-04-22T09:10:43.273Z,3.40
2019-04-22T09:11:48.488Z,3.80
2019-04-22T09:13:03.632Z,3.60
2019-04-22T09:13:45.398Z,3.60
2019-04-22T09:14:45.722Z,3.90
2019-04-22T09:15:42.194Z,3.60
2019-04-22T09:17:02.363Z,4.00
2019-04-22T09:17:47.315Z,3.80
2019-04-22T09:19:40.603Z,3.80
2019-04-22T09:20:49.225Z,3.30
2019-04-22T09:21:45.487Z,3.20
2019-04-22T09:22:44.029Z,3.50
2019-04-22T09:23:53.896Z,3.30
2019-04-22T09:24:43.846Z,3.40
2019-04-22T09:25:41.941Z,3.40
2019-04-22T09:26:41.874Z,3.60
2019-04-22T09:27:48.498Z,3.80
2019-04-22T09:28:44.052Z,3.70
2019-04-22T09:29:46.664Z,4.00
2019-04-22T09:30:52.433Z,3.60
2019-04-22T09:31:44.663Z,3.30
2019-04-22T09:32:45.251Z,3.20
2019-04-22T09:33:43.221Z,3.30
2019-04-22T09:35:00.234Z,3.80
2019-04-22T09:35:45.018Z,3.30
2019-04-22T09:36:42.069Z,3.50
2019-04-22T09:37:50.310Z,3.50
2019-04-22T09:38:41.145Z,3.80
2019-04-22T09:39:59.906Z,3.10
2019-04-22T09:40:43.023Z,3.60
2019-04-22T09:41:48.261Z,3.70
2019-04-22T09:42:48.708Z,3.10
2019-04-22T09:43:48.280Z,3.50
2019-04-22T09:44:53.199Z,3.10
2019-04-22T09:45:43.899Z,3.10
2019-04-22T09:47:53.654Z,3.30
2019-04-22T09:48:43.527Z,3.10
2019-04-22T09:49:49.782Z,3.30
2019-04-22T09:50:45.632Z,3.40
2019-04-22T09:51:45.053Z,3.40
2019-04-22T09:52:44.019Z,3.30
2019-04-22T09:53:46.825Z,3.70
2019-04-22T09:55:03.045Z,3.50
2019-04-22T09:55:45.108Z,3.20
2019-04-22T09:56:43.951Z,3.20
2019-04-22T09:57:39.751Z,3.10
2019-04-22T09:58:44.084Z,3.20
2019-04-22T09:59:44.057Z,3.30
2019-04-22T10:00:43.016Z,3.20
2019-04-22T10:02:03.959Z,2.90
2019-04-22T10:02:47.115Z,3.50
2019-04-22T10:03:44.500Z,3.50
2019-04-22T10:04:50.358Z,3.00
2019-04-22T10:06:11.514Z,3.40
2019-04-22T10:06:39.469Z,3.30
2019-04-22T10:07:43.240Z,3.20
2019-04-22T10:08:54.235Z,3.40
2019-04-22T10:10:41.489Z,3.10
2019-04-22T10:11:57.720Z,3.40
2019-04-22T10:12:42.293Z,3.10
2019-04-22T10:13:47.589Z,3.40
2019-04-22T10:14:45.693Z,3.30
2019-04-22T10:15:50.532Z,3.40
2019-04-22T10:16:45.548Z,3.30
2019-04-22T10:17:47.785Z,3.40
2019-04-22T10:18:45.869Z,3.20
2019-04-22T10:19:40.905Z,3.60
2019-04-22T10:20:46.017Z,3.70
2019-04-22T10:21:54.903Z,3.40
2019-04-22T10:22:46.106Z,3.50
2019-04-22T10:23:48.481Z,3.50
2019-04-22T10:24:42.819Z,3.40
2019-04-22T10:25:46.062Z,3.60
2019-04-22T10:28:06.925Z,3.30
2019-04-22T10:28:44.767Z,3.20
2019-04-22T10:29:52.002Z,3.20
2019-04-22T10:31:11.474Z,3.30
2019-04-22T10:31:43.635Z,3.40
2019-04-22T10:32:46.311Z,4.10
2019-04-22T10:33:38.170Z,3.80
2019-04-22T10:34:29.222Z,3.20
2019-04-22T10:35:20.994Z,3.60
2019-04-22T10:36:17.368Z,3.80
2019-04-22T10:37:19.923Z,3.40
2019-04-22T10:38:18.477Z,3.40
2019-04-22T10:39:16.283Z,3.10
2019-04-22T10:40:17.711Z,3.20
2019-04-22T10:41:16.583Z,3.00
2019-04-22T10:42:17.403Z,3.60
2019-04-22T10:43:17.045Z,3.30
2019-04-22T10:44:17.192Z,3.20
2019-04-22T10:45:16.539Z,2.90
2019-04-22T10:46:15.991Z,3.50
2019-04-22T10:47:16.045Z,3.20
2019-04-22T10:48:16.499Z,3.20
2019-04-22T10:49:16.128Z,3.50
2019-04-22T10:50:16.547Z,3.30
2019-04-22T10:51:16.909Z,3.30
2019-04-22T10:52:16.472Z,3.50
2019-04-22T10:53:17.429Z,3.90
2019-04-22T10:54:15.866Z,3.30
2019-04-22T10:55:17.275Z,3.20
2019-04-22T10:56:16.939Z,3.40
2019-04-22T10:57:15.970Z,3.30
2019-04-22T10:58:16.956Z,3.20
2019-04-22T10:59:16.436Z,3.50
2019-04-22T11:00:15.799Z,3.30
2019-04-22T11:01:15.916Z,3.10
2019-04-22T11:02:16.986Z,3.50
2019-04-22T11:03:16.176Z,3.40
2019-04-22T11:04:15.753Z,3.60
2019-04-22T11:05:16.713Z,3.40
2019-04-22T11:06:17.046Z,3.20
2019-04-22T11:07:17.362Z,3.20
2019-04-22T11:08:25.631Z,3.20
2019-04-22T11:09:18.261Z,3.50
2019-04-22T11:10:33.544Z,3.20
2019-04-22T11:11:26.192Z,3.40
2019-04-22T11:12:20.663Z,3.60
2019-04-22T11:13:17.982Z,3.30
2019-04-22T11:14:16.818Z,3.30
2019-04-22T11:15:15.948Z,3.30
2019-04-22T11:16:17.302Z,3.10
2019-04-22T11:17:15.747Z,3.40
2019-04-22T11:18:15.752Z,3.20
2019-04-22T11:19:15.591Z,3.00
2019-04-22T11:20:15.624Z,3.20
2019-04-22T11:21:15.780Z,2.90
2019-04-22T11:22:22.129Z,3.00
2019-04-22T11:23:16.551Z,3.30
2019-04-22T11:24:16.761Z,3.20
2019-04-22T11:25:16.085Z,3.30
2019-04-22T11:26:15.669Z,3.70
2019-04-22T11:27:16.819Z,3.20
2019-04-22T11:28:16.044Z,3.30
2019-04-22T11:29:15.487Z,3.10
2019-04-22T11:30:18.532Z,3.10
2019-04-22T11:31:16.600Z,3.90
2019-04-22T11:32:15.448Z,3.30
2019-04-22T11:33:16.355Z,3.70
2019-04-22T11:34:15.460Z,3.50
2019-04-22T11:35:16.162Z,3.20
2019-04-22T11:36:15.840Z,3.40
2019-04-22T11:37:16.611Z,3.30
2019-04-22T11:38:15.380Z,3.50
2019-04-22T11:39:16.972Z,3.30
2019-04-22T11:40:23.599Z,3.20
2019-04-22T11:41:16.850Z,3.30
2019-04-22T11:42:16.311Z,3.60
2019-04-22T11:43:16.416Z,3.40
2019-04-22T11:44:15.314Z,3.40
2019-04-22T11:45:15.346Z,3.30
2019-04-22T11:46:15.742Z,3.20
2019-04-22T11:47:15.308Z,3.00
2019-04-22T11:48:15.492Z,3.00
2019-04-22T11:49:16.216Z,3.10
2019-04-22T11:50:15.756Z,3.20
2019-04-22T11:51:15.953Z,2.90
2019-04-22T11:52:17.395Z,3.20
2019-04-22T11:53:16.581Z,3.00
2019-04-22T11:54:16.792Z,3.20
2019-04-22T11:55:15.192Z,3.80
2019-04-22T11:56:16.626Z,4.00
2019-04-22T11:57:15.240Z,3.40
2019-04-22T11:58:15.161Z,3.30
2019-04-22T11:59:15.316Z,3.40
2019-04-22T12:00:16.684Z,3.40
2019-04-22T12:01:15.127Z,3.40
2019-04-22T12:02:16.195Z,3.30
2019-04-22T12:03:15.111Z,3.30
2019-04-22T12:04:16.027Z,3.30
2019-04-22T12:05:15.901Z,3.60
2019-04-22T12:06:15.803Z,3.30
2019-04-22T12:07:15.166Z,3.40
2019-04-22T12:08:15.564Z,3.60
2019-04-22T12:09:15.471Z,3.60
2019-04-22T12:10:26.528Z,3.30
2019-04-22T12:11:16.691Z,3.20
2019-04-22T12:12:15.957Z,3.10
2019-04-22T12:13:15.837Z,3.30
2019-04-22T12:14:15.859Z,3.00
2019-04-22T12:15:15.136Z,3.20
2019-04-22T12:16:14.977Z,3.20
2019-04-22T12:17:16.001Z,3.10
2019-04-22T12:18:15.395Z,3.40
2019-04-22T12:19:15.691Z,3.30
2019-04-22T12:20:16.155Z,3.50
2019-04-22T12:21:15.329Z,3.10
2019-04-22T12:22:15.398Z,3.00
2019-04-22T12:23:14.928Z,3.20
2019-04-22T12:24:15.243Z,3.20
2019-04-22T12:25:28.048Z,3.30
2019-04-22T12:26:18.844Z,2.90
2019-04-22T12:27:17.370Z,3.10
2019-04-22T12:28:15.225Z,3.10
2019-04-22T12:29:15.360Z,3.10
2019-04-22T12:30:14.875Z,2.70
2019-04-22T12:31:15.529Z,2.80
2019-04-22T12:32:15.741Z,3.00
2019-04-22T12:33:15.062Z,3.20
2019-04-22T12:34:15.447Z,3.00
2019-04-22T12:35:15.646Z,2.90
2019-04-22T12:36:15.012Z,2.90
2019-04-22T12:37:23.572Z,3.10
2019-04-22T12:38:17.019Z,2.80
2019-04-22T12:39:15.683Z,3.10
2019-04-22T12:40:26.934Z,3.10
2019-04-22T12:41:16.573Z,3.20
2019-04-22T12:42:15.381Z,2.70
2019-04-22T12:43:18.097Z,3.00
2019-04-22T12:44:15.036Z,3.30
2019-04-22T12:45:16.151Z,3.00
2019-04-22T12:46:14.636Z,2.90
2019-04-22T12:47:14.942Z,2.70
2019-04-22T12:48:15.064Z,2.90
2019-04-22T12:49:16.185Z,3.50
2019-04-22T12:50:21.543Z,3.10
2019-04-22T12:51:15.582Z,3.30
2019-04-22T12:52:25.549Z,3.50
2019-04-22T12:53:18.766Z,2.90
2019-04-22T12:54:17.018Z,3.10
2019-04-22T12:55:17.307Z,3.10
2019-04-22T12:56:15.395Z,3.10
2019-04-22T12:57:14.803Z,3.40
2019-04-22T12:58:15.765Z,3.20
2019-04-22T12:59:14.520Z,3.10
2019-04-22T13:00:15.630Z,2.90
2019-04-22T13:01:15.106Z,3.00
2019-04-22T13:02:15.480Z,2.90
2019-04-22T13:03:15.817Z,2.90
2019-04-22T13:04:17.576Z,2.80
2019-04-22T13:05:16.242Z,2.90
2019-04-22T13:06:14.419Z,2.90
2019-04-22T13:07:15.663Z,2.90
2019-04-22T13:08:15.725Z,2.70
2019-04-22T13:09:16.329Z,3.00
2019-04-22T13:10:15.634Z,3.00
2019-04-22T13:11:18.512Z,2.70
2019-04-22T13:12:15.355Z,2.80
2019-04-22T13:13:15.397Z,2.90
2019-04-22T13:14:14.987Z,2.80
2019-04-22T13:15:14.322Z,2.70
2019-04-22T13:16:15.392Z,2.50
2019-04-22T13:17:15.804Z,2.90
2019-04-22T13:18:27.004Z,2.80
2019-04-22T13:19:18.645Z,3.00
2019-04-22T13:20:16.585Z,2.80
2019-04-22T13:21:14.957Z,2.70
2019-04-22T13:22:14.629Z,3.00
2019-04-22T13:23:15.464Z,2.70
2019-04-22T13:24:15.985Z,2.70
2019-04-22T13:25:15.538Z,2.60
2019-04-22T13:26:15.105Z,2.60
2019-04-22T13:27:15.033Z,3.00
2019-04-22T13:28:15.450Z,2.50
2019-04-22T13:29:15.034Z,3.00
2019-04-22T13:30:14.576Z,2.50
2019-04-22T13:31:14.150Z,2.50
2019-04-22T13:32:14.139Z,2.80
2019-04-22T13:33:14.870Z,2.60
2019-04-22T13:34:25.494Z,2.60
2019-04-22T13:35:18.480Z,2.80
2019-04-22T13:36:15.498Z,2.90
2019-04-22T13:37:14.867Z,2.50
2019-04-22T13:38:15.193Z,2.50
2019-04-22T13:39:14.068Z,2.30
2019-04-22T13:40:15.072Z,2.50
2019-04-22T13:41:26.424Z,2.80
2019-04-22T13:42:19.371Z,2.80
2019-04-22T13:43:15.022Z,2.40
2019-04-22T13:44:14.657Z,2.50
2019-04-22T13:45:14.024Z,2.60
2019-04-22T13:46:14.502Z,2.70
2019-04-22T13:47:32.463Z,2.50
2019-04-22T13:48:31.188Z,2.60
2019-04-22T13:49:51.415Z,2.80
2019-04-22T13:50:52.179Z,2.30
2019-04-22T13:51:48.748Z,2.60
2019-04-22T13:52:49.012Z,2.90
2019-04-22T13:56:38.751Z,2.50
2019-04-22T13:57:33.168Z,2.30
2019-04-22T13:58:32.610Z,2.50
2019-04-22T13:59:23.003Z,2.80
2019-04-22T14:00:16.173Z,2.50
2019-04-22T14:01:14.690Z,2.60
2019-04-22T14:02:14.661Z,2.40
2019-04-22T14:03:13.815Z,2.40
2019-04-22T14:04:14.385Z,2.40
2019-04-22T14:05:14.882Z,2.30
2019-04-22T14:06:13.778Z,2.30
2019-04-22T14:07:14.767Z,2.20
2019-04-22T14:08:14.550Z,2.70
2019-04-22T14:09:14.071Z,2.40
2019-04-22T14:10:14.193Z,2.30
2019-04-22T14:11:21.555Z,2.50
2019-04-22T14:12:16.310Z,2.60
2019-04-22T14:13:14.071Z,2.80
2019-04-22T14:14:13.697Z,2.70
2019-04-22T14:15:13.934Z,2.40
2019-04-22T14:16:15.140Z,3.10
2019-04-22T14:17:13.663Z,2.70
2019-04-22T14:18:14.911Z,2.80
2019-04-22T14:19:14.059Z,2.80
2019-04-22T14:20:15.019Z,2.60
2019-04-22T14:21:14.950Z,2.50
2019-04-22T14:22:13.850Z,2.30
2019-04-22T14:23:15.266Z,2.50
2019-04-22T14:24:14.313Z,2.50
2019-04-22T14:25:14.589Z,2.40
2019-04-22T14:26:13.589Z,2.50
2019-04-22T14:27:25.532Z,2.60
2019-04-22T14:28:17.631Z,2.40
2019-04-22T14:29:13.691Z,2.80
2019-04-22T14:30:14.812Z,2.40
2019-04-22T14:31:14.823Z,2.40
2019-04-22T14:32:19.624Z,2.70
2019-04-22T14:33:15.998Z,2.70
2019-04-22T14:34:15.133Z,2.60
2019-04-22T14:35:13.526Z,2.40
2019-04-22T14:36:13.482Z,2.60
2019-04-22T14:37:14.252Z,2.80
2019-04-22T14:38:14.198Z,2.40
2019-04-22T14:39:13.425Z,2.50
2019-04-22T14:40:14.499Z,2.60
2019-04-22T14:41:32.776Z,2.40
2019-04-22T14:42:34.410Z,2.60